Relevés horaires Florennes (Belgique)


Relevés horaires à Florennes - Mardi 27 Déc. 2022
Heure UTC1 Température [°C] Vent [km/h] Hum. [%] Pres.4 [hPa] Visi. [Km] Nébu. [octa] Préc.5 [mm] Cond.
2m. Res. Ros. Dir.2 Vit. Moy. Raf.3
23:00 5.0 2.4 3.5 S 11.1 -- 20.4 90 1020.6(-2.4/3h) 20 -- -- --
22:00 4.9 2 3.5 SSO 13.0 -- 20.4 91 1022(-2.0/3h) 20 -- -- --
21:00 4.5 1.8 2.9 SSO 11.1 -- 18.5 89 1022.7(-1.5/3h) 20 -- -- --
20:00 4.4 1.7 2.8 S 11.1 -- 16.7 89 1023.2(-1.8/3h) 20 -- -- --
19:00 4.3 1.6 3.1 SSO 11.1 -- 18.5 92 1024(-1.3/3h) 20 -- -- --
18:00 3.6 0.7 2.2 S 11.1 -- 18.5 91 1024.4(-1.5/3h) 20 -- trace/12h
--
17:00 3.8 1.9 2.2 S 7.4 -- 13.0 89 1025.2(-0.7/3h) 20 -- -- --
16:00 3.8 1.4 2.0 S 9.3 -- 16.7 88 1025.5(-1.1/3h) 20 -- -- --
15:00 5.1 2.6 2.0 SSO 11.1 -- 18.5 80 1025.7(-1.4/3h) 20 -- -- --
14:00 5.6 3.2 2.3 SSO 11.1 -- 16.7 79 1025.7(-1.8/3h) 20 -- -- --
13:00 5.6 3.2 2.5 SSO 11.1 -- 18.5 80 1026.5(-1.2/3h) 20 -- -- --
12:00 5.3 2.8 2.6 SSO 11.1 -- 16.7 83 1027.2(-0.3/3h) 20 -- trace/6h
--
11:00 4.1 1.7 2.4 SSO 9.3 -- 14.8 89 1028(0.4/3h) 20 -- -- --
10:00 3.4 0.9 2.3 SSO 9.3 -- 14.8 92 1028(0.7/3h) 19 -- -- --
09:00 2.7 1.2 1.7 SO 5.6 -- 14.8 93 1028(0.8/3h) 20 -- -- --
08:00 2.0 -0.7 1.3 SSO 9.3 -- 14.8 95 1027.7(0.4/3h) 19 -- -- --
07:00 2.2 0.7 1.5 SO 5.6 -- 11.1 95 1027.4(0.2/3h) 19 -- -- --
06:00 2.0 0.4 1.3 SO 5.6 -- 14.8 95 1027.2(0.2/3h) 19 -- -- --
05:00 2.2 0 1.1 OSO 7.4 -- 11.1 92 1027.2(0.4/3h) 20 -- -- --
04:00 2.3 0.1 1.2 SO 7.4 -- 13.0 92 1027(1.0/3h) 20 -- -- --
03:00 2.4 -0.3 1.2 SO 9.3 -- 14.8 92 1027(1.2/3h) 20 -- -- --
02:00 3.0 1 1.4 OSO 7.4 -- 14.8 89 1026.5(1.1/3h) 20 -- -- --
01:00 2.8 0.2 1.3 OSO 9.3 -- 13.0 90 1026(1.1/3h) 20 -- -- --
00:00 2.9 0.3 1.5 OSO 9.3 -- 14.8 90 1025.7(1.7/3h) 20 -- -- --

1 Coordinated Universal Time. Actuellement il est 19:00 locale et 17:00 UTC.

2 Le vent souffle depuis la direction indiquée vers la direction oposée.

3 Les rafales max. sont disponible 40 min après l'heure du relevé.

4 Pour les stations d'altitude (plus de 600m) le géopotentiel du niveau le plus proche de la pression obligatoire est indiqué.

5 Les stations disposant d'un diffuseur peuvent indiquer "trace". Cela signifie que des précipitations ont touchés le sol mais que la quantité est inférieure à 0.1 mm.

Récapitulatif de la journée
Température [°C] Vent [km/h] Ensoleillement4 [h] Precipitations totale5 [mm] Pression [Hpa]
Min1 Max.2 Moy.3 Max. Min Max.
1.7 5.9 0 20.4 0 h 0 min 0 1020.6 1028.0

1 Température minimale relevée entre 18:00 UTC la veille et 18:00 UTC le jour donné.

2 Température maximale relevée entre 06:00 UTC le jour donné et 06:00 UTC le lendemain.

3 Vent moyen de la journée basé sur les relevés horaires.

4 Ensoleillement en heures relevé entre 06:00 UTC la veille et 06:00 UTC le jour donné.

5 Précipitations totales tombées entre 06:00 UTC la jour donné et 06:00 UTC le lendemain.

Graphiques horaires